Time;durP1;ratioP1;P1;durP2;ratioP2;P2;SDS_P1;SDS_P2;PMS_P1;PMS_P2;Temp;Humidity;BMP_temperature;BMP_pressure;BME280_temperature;BME280_humidity;BME280_pressure;Samples;Min_cycle;Max_cycle;Signal;HPM_P1;HPM_P2
2023/02/28 00:00:37;;;;;;;1.40;1.30;;;1.90;99.90;;;;;;4962809;28;20066;-84
2023/02/28 00:03:04;;;;;;;3.45;2.00;;;1.80;99.90;;;;;;4939967;28;20063;-83
2023/02/28 00:05:32;;;;;;;1.75;1.65;;;1.80;99.90;;;;;;4954081;28;20516;-85
2023/02/28 00:07:59;;;;;;;2.17;1.95;;;1.80;99.90;;;;;;4956349;28;20738;-84
2023/02/28 00:10:30;;;;;;;4.57;1.77;;;1.80;99.90;;;;;;4957864;28;20137;-84
2023/02/28 00:13:04;;;;;;;5.10;1.70;;;1.80;99.90;;;;;;4956322;28;20047;-85
2023/02/28 00:15:32;;;;;;;2.85;1.92;;;1.70;99.90;;;;;;4953519;28;20047;-85
2023/02/28 00:17:59;;;;;;;1.95;1.73;;;1.70;99.90;;;;;;4958147;28;20102;-84
2023/02/28 00:20:26;;;;;;;1.90;1.63;;;1.70;99.90;;;;;;4972869;28;20113;-85
2023/02/28 00:22:54;;;;;;;5.45;1.60;;;1.80;99.90;;;;;;4957321;28;20039;-84
2023/02/28 00:25:23;;;;;;;6.05;1.40;;;1.80;99.90;;;;;;4952716;28;20051;-83
2023/02/28 00:27:51;;;;;;;2.80;1.70;;;1.90;99.90;;;;;;4956047;28;20762;-83
2023/02/28 00:30:20;;;;;;;3.63;1.33;;;1.90;99.90;;;;;;4954001;28;20051;-84
2023/02/28 00:32:48;;;;;;;1.45;1.30;;;2.00;99.90;;;;;;4957678;28;20121;-84
2023/02/28 00:35:16;;;;;;;1.17;1.00;;;2.00;99.90;;;;;;4951187;28;20051;-84
2023/02/28 00:37:44;;;;;;;1.35;1.25;;;2.00;99.90;;;;;;4957045;28;20062;-84
2023/02/28 00:40:11;;;;;;;3.72;1.58;;;2.00;99.90;;;;;;4952794;28;20559;-84
2023/02/28 00:42:39;;;;;;;2.78;1.83;;;2.00;99.90;;;;;;4956612;28;20466;-84
2023/02/28 00:45:07;;;;;;;4.57;1.90;;;2.10;99.90;;;;;;4956293;28;20057;-85
2023/02/28 00:47:37;;;;;;;1.45;1.35;;;2.00;99.90;;;;;;4956998;28;20055;-85
2023/02/28 00:50:05;;;;;;;2.20;1.25;;;2.00;99.90;;;;;;4955901;28;20086;-84
2023/02/28 00:52:32;;;;;;;2.70;1.85;;;2.00;99.90;;;;;;4958259;28;20051;-84
2023/02/28 00:54:59;;;;;;;2.25;1.67;;;2.00;99.90;;;;;;4960945;28;20081;-85
2023/02/28 00:57:26;;;;;;;2.22;1.35;;;1.90;99.90;;;;;;4959020;28;20051;-84
2023/02/28 00:59:54;;;;;;;1.77;1.40;;;1.90;99.90;;;;;;4955945;28;20050;-84
2023/02/28 01:02:22;;;;;;;1.40;1.27;;;1.90;99.90;;;;;;4952796;28;20038;-84
2023/02/28 01:04:51;;;;;;;3.88;1.65;;;1.90;99.90;;;;;;4952391;28;20508;-84
2023/02/28 01:07:18;;;;;;;4.65;1.70;;;1.90;99.90;;;;;;4955935;28;20671;-85
2023/02/28 01:09:45;;;;;;;1.75;1.42;;;1.90;99.90;;;;;;4959475;28;20053;-84
2023/02/28 01:12:12;;;;;;;3.55;1.90;;;1.90;99.90;;;;;;4957044;28;20240;-85
2023/02/28 01:14:40;;;;;;;3.08;2.05;;;1.90;99.90;;;;;;4966448;28;20058;-83
2023/02/28 01:17:06;;;;;;;2.33;1.95;;;2.00;99.90;;;;;;4958418;28;20066;-84
2023/02/28 01:19:34;;;;;;;1.38;1.23;;;2.00;99.90;;;;;;4955899;28;20050;-84
2023/02/28 01:22:03;;;;;;;5.18;2.08;;;2.10;99.90;;;;;;4957083;28;20585;-84
2023/02/28 01:24:30;;;;;;;5.47;1.77;;;2.10;99.90;;;;;;4960719;28;20070;-84
2023/02/28 01:27:00;;;;;;;1.70;1.33;;;2.20;99.90;;;;;;4956256;28;20073;-85
2023/02/28 01:29:27;;;;;;;1.73;1.60;;;2.10;99.90;;;;;;4964217;28;20882;-84
2023/02/28 01:31:53;;;;;;;1.65;1.52;;;2.10;99.90;;;;;;4957108;28;20038;-85
2023/02/28 01:34:20;;;;;;;2.38;1.67;;;2.10;99.90;;;;;;4955545;28;20094;-84
2023/02/28 01:36:47;;;;;;;4.88;2.15;;;2.10;99.90;;;;;;4956468;28;20121;-83
2023/02/28 01:39:14;;;;;;;3.00;1.80;;;2.10;99.90;;;;;;4960210;28;20760;-86
2023/02/28 01:41:42;;;;;;;3.78;1.83;;;2.10;99.90;;;;;;4954133;28;20051;-84
2023/02/28 01:44:47;;;;;;;2.42;1.67;;;2.10;99.90;;;;;;4960324;28;20149;-83
2023/02/28 01:47:15;;;;;;;3.58;2.50;;;2.10;99.90;;;;;;4962361;28;20867;-85
2023/02/28 01:49:42;;;;;;;4.18;1.90;;;2.10;99.90;;;;;;4949421;28;20042;-85
2023/02/28 01:52:17;;;;;;;3.88;1.85;;;2.10;99.90;;;;;;4965527;28;20107;-85
2023/02/28 01:54:51;;;;;;;4.00;1.65;;;2.10;99.90;;;;;;4961563;28;20579;-85
2023/02/28 01:57:26;;;;;;;1.77;1.50;;;2.20;99.90;;;;;;4939288;28;20452;-84
2023/02/28 02:00:00;;;;;;;1.55;1.15;;;2.10;99.90;;;;;;4955276;28;20047;-85
2023/02/28 02:02:29;;;;;;;1.55;1.27;;;2.10;99.90;;;;;;4969175;28;20122;-84
2023/02/28 02:05:06;;;;;;;1.77;1.33;;;2.20;99.90;;;;;;4965625;28;20051;-82
2023/02/28 02:07:37;;;;;;;2.35;1.35;;;2.20;99.90;;;;;;4956696;28;20070;-84
2023/02/28 02:10:14;;;;;;;2.22;1.40;;;2.20;99.90;;;;;;4962973;28;20047;-82
2023/02/28 02:13:10;;;;;;;2.38;1.50;;;2.20;99.90;;;;;;4949420;28;20042;-84
2023/02/28 02:15:41;;;;;;;1.95;1.38;;;2.20;99.90;;;;;;4964100;28;20116;-83
2023/02/28 02:18:21;;;;;;;4.97;4.47;;;2.20;99.90;;;;;;4966728;28;20166;-83
2023/02/28 02:21:27;;;;;;;2.05;1.60;;;2.20;99.90;;;;;;4969213;28;20045;-82
2023/02/28 02:24:16;;;;;;;4.03;1.67;;;2.20;99.90;;;;;;4957401;28;20054;-82
2023/02/28 02:27:09;;;;;;;4.80;1.77;;;2.20;99.90;;;;;;4968529;28;20142;-83
2023/02/28 02:30:08;;;;;;;3.17;1.88;;;2.10;99.90;;;;;;4968604;28;20073;-79
2023/02/28 02:32:50;;;;;;;2.33;2.10;;;2.10;99.90;;;;;;4965501;28;20050;-82
2023/02/28 02:35:28;;;;;;;2.92;2.10;;;2.10;99.90;;;;;;4969413;28;20074;-80
2023/02/28 02:38:11;;;;;;;3.45;2.42;;;2.10;99.90;;;;;;4966981;28;20507;-80
2023/02/28 02:41:07;;;;;;;2.55;2.33;;;2.10;99.90;;;;;;4966052;28;20242;-80
2023/02/28 02:43:46;;;;;;;4.78;2.10;;;2.10;99.90;;;;;;4970745;28;20057;-80
2023/02/28 02:46:26;;;;;;;4.95;2.70;;;2.00;99.90;;;;;;4966154;28;20043;-82
2023/02/28 02:48:56;;;;;;;5.03;2.28;;;2.00;99.90;;;;;;4959013;28;20052;-81
2023/02/28 02:51:24;;;;;;;7.07;1.70;;;2.00;99.90;;;;;;4967339;28;20109;-81
2023/02/28 02:54:23;;;;;;;2.80;1.77;;;2.00;99.90;;;;;;4955304;28;20059;-81
2023/02/28 02:56:51;;;;;;;1.95;1.58;;;2.00;99.90;;;;;;4961550;28;20043;-79
2023/02/28 02:59:23;;;;;;;2.15;1.70;;;2.00;99.90;;;;;;4951336;28;20059;-82
2023/02/28 03:01:54;;;;;;;2.22;1.35;;;2.00;99.90;;;;;;4960596;28;20062;-81
2023/02/28 03:04:24;;;;;;;5.05;1.65;;;2.00;99.90;;;;;;4961957;28;20047;-79
2023/02/28 03:06:54;;;;;;;2.05;1.63;;;2.00;99.90;;;;;;4964884;28;20138;-80
2023/02/28 03:09:22;;;;;;;1.73;1.45;;;2.00;99.90;;;;;;4963167;28;20523;-82
2023/02/28 03:11:52;;;;;;;2.55;1.85;;;2.00;99.90;;;;;;4967550;28;20043;-81
2023/02/28 03:14:52;;;;;;;2.30;1.65;;;2.00;99.90;;;;;;4962994;28;20043;-81
2023/02/28 03:17:52;;;;;;;3.63;1.60;;;2.00;99.90;;;;;;4963286;28;20058;-82
2023/02/28 03:20:32;;;;;;;3.70;1.55;;;2.00;99.90;;;;;;4952979;28;20047;-81
2023/02/28 03:23:02;;;;;;;1.95;1.38;;;2.00;99.90;;;;;;4956574;28;20046;-82
2023/02/28 03:25:54;;;;;;;3.83;1.60;;;2.00;99.90;;;;;;4954011;28;20066;-82
2023/02/28 03:28:36;;;;;;;3.53;1.42;;;2.00;99.90;;;;;;4956600;28;20047;-82
2023/02/28 03:31:12;;;;;;;3.70;1.52;;;2.00;99.90;;;;;;4958089;28;20133;-82
2023/02/28 03:33:45;;;;;;;2.53;1.00;;;2.00;99.90;;;;;;4941705;28;20051;-82
2023/02/28 03:36:21;;;;;;;3.25;1.85;;;2.00;99.90;;;;;;4954916;28;20117;-82
2023/02/28 03:39:02;;;;;;;3.08;1.33;;;2.00;99.90;;;;;;4958056;28;20500;-82
2023/02/28 03:41:47;;;;;;;2.97;1.17;;;2.00;99.90;;;;;;4955964;28;20408;-82
2023/02/28 03:44:38;;;;;;;2.42;1.63;;;2.00;99.90;;;;;;4956789;28;20364;-82
2023/02/28 03:47:08;;;;;;;;;;;2.00;99.90;;;;;;4958777;28;20578;-82
2023/02/28 03:49:47;;;;;;;3.72;1.40;;;1.90;99.90;;;;;;4938713;28;20506;-82
2023/02/28 03:52:17;;;;;;;2.78;1.60;;;1.90;99.90;;;;;;4952941;28;20530;-83
2023/02/28 03:54:50;;;;;;;2.85;1.88;;;1.90;99.90;;;;;;4955343;28;20055;-82
2023/02/28 03:57:32;;;;;;;6.20;1.70;;;1.90;99.90;;;;;;4955471;28;20039;-82
2023/02/28 04:00:05;;;;;;;1.60;1.38;;;1.90;99.90;;;;;;4954272;28;20229;-83
2023/02/28 04:02:39;;;;;;;6.57;2.33;;;1.90;99.90;;;;;;4964034;28;20049;-84
2023/02/28 04:05:07;;;;;;;2.22;1.85;;;1.90;99.90;;;;;;4937424;28;20054;-83
2023/02/28 04:07:34;;;;;;;1.58;1.40;;;1.90;99.90;;;;;;4954652;28;20544;-83
2023/02/28 04:10:02;;;;;;;2.38;1.10;;;1.90;99.90;;;;;;4950734;28;20539;-83
2023/02/28 04:12:29;;;;;;;1.67;1.33;;;1.90;99.90;;;;;;4960776;28;20053;-82
2023/02/28 04:14:56;;;;;;;2.53;1.30;;;1.90;99.90;;;;;;4955148;28;20055;-81
2023/02/28 04:17:23;;;;;;;4.30;1.48;;;1.80;99.90;;;;;;4960030;28;20070;-82
2023/02/28 04:19:50;;;;;;;6.35;2.33;;;1.80;99.90;;;;;;4957411;28;20055;-81
2023/02/28 04:22:17;;;;;;;2.97;1.52;;;1.80;99.90;;;;;;4953139;28;20054;-81
2023/02/28 04:24:44;;;;;;;2.13;1.45;;;1.70;99.90;;;;;;4941231;28;20054;-81
2023/02/28 04:27:11;;;;;;;3.15;1.33;;;1.80;99.90;;;;;;4964406;28;20573;-82
2023/02/28 04:29:38;;;;;;;1.83;1.10;;;1.80;99.90;;;;;;4943598;28;20173;-82
2023/02/28 04:32:05;;;;;;;2.35;1.95;;;1.80;99.90;;;;;;4957082;28;20055;-83
2023/02/28 04:34:32;;;;;;;4.15;1.80;;;1.80;99.90;;;;;;4958384;28;20111;-82
2023/02/28 04:37:00;;;;;;;5.47;1.80;;;1.80;99.90;;;;;;4954543;28;20468;-82
2023/02/28 04:39:43;;;;;;;4.03;1.73;;;1.80;99.90;;;;;;4956675;28;20047;-83
2023/02/28 04:42:11;;;;;;;3.97;1.98;;;1.90;99.90;;;;;;4962225;28;20302;-83
2023/02/28 04:44:38;;;;;;;4.65;1.70;;;1.90;99.90;;;;;;4953650;28;20043;-83
2023/02/28 04:47:05;;;;;;;2.00;1.20;;;1.90;99.90;;;;;;4958546;28;20050;-83
2023/02/28 04:49:33;;;;;;;3.60;2.35;;;1.90;99.90;;;;;;4951217;28;21008;-83
2023/02/28 04:52:00;;;;;;;3.92;1.65;;;2.00;99.90;;;;;;4955238;28;20051;-83
2023/02/28 04:54:28;;;;;;;1.85;1.30;;;1.90;99.90;;;;;;4958796;28;20087;-83
2023/02/28 04:56:55;;;;;;;3.88;1.55;;;1.90;99.90;;;;;;4958782;28;20083;-82
2023/02/28 04:59:22;;;;;;;3.53;1.20;;;1.90;99.90;;;;;;4957904;28;20066;-82
2023/02/28 05:01:49;;;;;;;2.83;1.45;;;1.90;99.90;;;;;;4958045;28;20789;-81
2023/02/28 05:04:16;;;;;;;3.00;1.63;;;1.90;99.90;;;;;;4958068;28;20051;-83
2023/02/28 05:06:44;;;;;;;5.05;1.23;;;1.90;99.90;;;;;;4951238;28;20046;-82
2023/02/28 05:09:11;;;;;;;2.63;1.50;;;1.90;99.90;;;;;;4959252;28;20137;-81
2023/02/28 05:11:39;;;;;;;3.35;1.50;;;1.90;99.90;;;;;;4954652;28;20047;-83
2023/02/28 05:14:11;;;;;;;2.03;1.35;;;1.90;99.90;;;;;;4940439;28;20126;-82
2023/02/28 05:16:38;;;;;;;2.33;1.83;;;1.90;99.90;;;;;;4956769;28;20452;-82
2023/02/28 05:19:05;;;;;;;3.13;1.42;;;1.90;99.90;;;;;;4956733;28;20389;-82
2023/02/28 05:21:35;;;;;;;2.75;1.42;;;1.90;99.90;;;;;;4959583;28;20530;-83
2023/02/28 05:24:05;;;;;;;4.28;2.90;;;1.90;99.90;;;;;;4963016;28;20055;-82
2023/02/28 05:26:35;;;;;;;3.40;1.40;;;1.90;99.90;;;;;;4964986;28;20107;-81
2023/02/28 05:29:02;;;;;;;;;;;1.80;99.90;;;;;;4967344;28;20051;-82
2023/02/28 05:31:29;;;;;;;2.72;1.67;;;1.90;99.90;;;;;;4956704;28;20495;-82
2023/02/28 05:33:56;;;;;;;2.83;1.38;;;1.90;99.90;;;;;;4958315;28;20051;-85
2023/02/28 05:36:24;;;;;;;4.53;1.85;;;1.90;99.90;;;;;;4960146;28;20122;-86
2023/02/28 05:38:51;;;;;;;4.25;1.45;;;1.80;99.90;;;;;;4962836;28;20049;-85
2023/02/28 05:41:19;;;;;;;3.13;1.50;;;1.80;99.90;;;;;;4963157;28;20700;-85
2023/02/28 05:43:47;;;;;;;1.77;1.10;;;1.90;99.90;;;;;;4960990;28;20117;-83
2023/02/28 05:46:15;;;;;;;2.97;1.42;;;1.80;99.90;;;;;;4962048;28;20077;-84
2023/02/28 05:48:46;;;;;;;2.55;1.33;;;1.80;99.90;;;;;;4957066;28;20055;-84
2023/02/28 05:51:14;;;;;;;2.47;1.58;;;1.80;99.90;;;;;;4963197;28;20568;-84
2023/02/28 05:53:41;;;;;;;5.97;1.88;;;1.80;99.90;;;;;;4963242;28;20051;-86
2023/02/28 05:56:08;;;;;;;1.77;1.20;;;1.80;99.90;;;;;;4958903;28;20043;-83
2023/02/28 05:58:35;;;;;;;4.00;1.17;;;1.90;99.90;;;;;;4952732;28;20241;-84
2023/02/28 06:01:22;;;;;;;2.10;1.27;;;1.90;99.90;;;;;;4959474;28;20047;-85
2023/02/28 06:03:49;;;;;;;2.38;1.10;;;1.80;99.90;;;;;;4958980;28;20513;-85
2023/02/28 06:06:16;;;;;;;2.53;1.58;;;1.80;99.90;;;;;;4961807;28;20081;-86
2023/02/28 06:08:44;;;;;;;1.55;0.90;;;1.80;99.90;;;;;;4961684;28;20047;-84
2023/02/28 06:11:11;;;;;;;1.10;1.00;;;1.90;99.90;;;;;;4963551;28;20051;-84
2023/02/28 06:13:38;;;;;;;1.85;1.38;;;1.90;99.90;;;;;;4951804;28;20551;-83
2023/02/28 06:16:06;;;;;;;1.88;0.95;;;1.90;99.90;;;;;;4961950;28;20047;-85
2023/02/28 06:18:32;;;;;;;3.65;2.85;;;1.90;99.90;;;;;;4961627;28;20058;-85
2023/02/28 06:20:59;;;;;;;3.47;1.45;;;1.90;99.90;;;;;;4966970;28;20074;-86
2023/02/28 06:23:26;;;;;;;4.03;1.10;;;1.90;99.90;;;;;;4959256;28;20177;-82
2023/02/28 06:25:57;;;;;;;1.83;1.10;;;1.90;99.90;;;;;;4961892;28;20057;-84
2023/02/28 06:28:25;;;;;;;4.80;1.70;;;1.90;99.90;;;;;;4962319;28;20063;-85
2023/02/28 06:30:52;;;;;;;1.30;0.90;;;1.90;99.90;;;;;;4961584;28;20046;-85
2023/02/28 06:33:19;;;;;;;1.95;0.98;;;1.90;99.90;;;;;;4958579;28;20675;-84
2023/02/28 06:35:50;;;;;;;2.53;0.98;;;2.00;99.90;;;;;;4962826;28;20523;-85
2023/02/28 06:38:18;;;;;;;1.98;1.10;;;2.00;99.90;;;;;;4958933;28;20099;-86
2023/02/28 06:40:52;;;;;;;2.95;1.20;;;2.00;99.90;;;;;;4956830;28;20067;-85
2023/02/28 06:43:19;;;;;;;2.92;0.80;;;2.00;99.90;;;;;;4957642;28;20046;-85
2023/02/28 06:45:46;;;;;;;2.85;1.02;;;2.00;99.90;;;;;;4959718;28;25008;-85
2023/02/28 06:48:13;;;;;;;1.60;0.95;;;2.00;99.90;;;;;;4956543;28;20066;-85
2023/02/28 06:50:40;;;;;;;3.13;1.25;;;2.10;99.90;;;;;;4958677;28;20047;-85
2023/02/28 06:53:07;;;;;;;3.40;0.77;;;2.10;99.90;;;;;;4962074;28;20035;-84
2023/02/28 06:55:34;;;;;;;2.08;0.80;;;2.10;99.90;;;;;;4957191;28;20079;-85
2023/02/28 06:58:01;;;;;;;6.47;1.10;;;2.10;99.90;;;;;;4957033;28;20105;-83
2023/02/28 07:00:28;;;;;;;1.42;0.77;;;2.20;99.90;;;;;;4960930;28;20175;-86
2023/02/28 07:02:55;;;;;;;1.63;1.05;;;2.20;99.90;;;;;;4953182;28;20677;-85
2023/02/28 07:05:22;;;;;;;7.75;1.45;;;2.20;99.90;;;;;;4957466;28;20150;-84
2023/02/28 07:07:49;;;;;;;5.60;1.15;;;2.30;99.90;;;;;;4955731;28;20083;-86
2023/02/28 07:10:17;;;;;;;1.13;0.90;;;2.30;99.90;;;;;;4960907;28;20043;-85
2023/02/28 07:12:46;;;;;;;1.02;0.80;;;2.40;99.90;;;;;;4954941;28;20101;-84
2023/02/28 07:15:13;;;;;;;1.75;0.80;;;2.40;99.90;;;;;;4962984;28;20477;-84
2023/02/28 07:17:40;;;;;;;1.75;1.00;;;2.40;99.90;;;;;;4951601;28;20067;-85
2023/02/28 07:20:08;;;;;;;1.40;0.80;;;2.40;99.90;;;;;;4954926;28;20105;-85
2023/02/28 07:22:35;;;;;;;1.95;0.93;;;2.50;99.90;;;;;;4958027;28;20567;-85
2023/02/28 07:25:02;;;;;;;2.15;1.00;;;2.50;99.90;;;;;;4940452;28;20042;-85
2023/02/28 07:27:28;;;;;;;3.85;1.08;;;2.60;99.90;;;;;;4957410;28;20079;-84
2023/02/28 07:29:55;;;;;;;1.42;0.77;;;2.60;99.90;;;;;;4962936;28;20043;-85
2023/02/28 07:32:22;;;;;;;2.45;1.02;;;2.60;99.90;;;;;;4958134;28;20089;-84
2023/02/28 07:34:49;;;;;;;2.15;1.13;;;2.60;99.90;;;;;;4959825;28;20848;-84
2023/02/28 07:37:16;;;;;;;4.32;1.77;;;2.60;99.90;;;;;;4961353;28;20085;-84
2023/02/28 07:39:43;;;;;;;2.35;1.13;;;2.60;99.90;;;;;;4954535;28;20086;-82
2023/02/28 07:42:11;;;;;;;1.95;1.02;;;2.70;99.90;;;;;;4956089;28;20567;-83
2023/02/28 07:44:40;;;;;;;3.47;1.17;;;2.70;99.90;;;;;;4958060;28;20053;-84
2023/02/28 07:47:08;;;;;;;1.52;0.80;;;2.70;99.90;;;;;;4958706;28;20102;-83
2023/02/28 07:49:39;;;;;;;1.27;0.63;;;2.70;99.90;;;;;;4943744;28;20085;-84
2023/02/28 07:52:07;;;;;;;2.05;0.75;;;2.80;99.90;;;;;;4964487;28;20055;-84
2023/02/28 07:54:34;;;;;;;1.58;0.93;;;2.80;99.90;;;;;;4955112;28;20090;-81
2023/02/28 07:57:01;;;;;;;2.45;0.95;;;2.80;99.90;;;;;;4961197;28;20055;-83
2023/02/28 07:59:28;;;;;;;1.25;0.95;;;2.80;99.90;;;;;;4960253;28;20051;-83
2023/02/28 08:01:58;;;;;;;0.77;0.75;;;2.90;99.90;;;;;;4958820;28;20463;-85
2023/02/28 08:04:26;;;;;;;2.78;1.02;;;2.90;99.90;;;;;;4956619;28;20051;-83
2023/02/28 08:06:53;;;;;;;3.67;1.05;;;2.90;99.90;;;;;;4958228;28;20515;-82
2023/02/28 08:09:20;;;;;;;4.00;1.55;;;2.90;99.90;;;;;;4956206;28;20050;-85
2023/02/28 08:11:47;;;;;;;1.20;0.68;;;2.90;99.90;;;;;;4962448;28;20070;-83
2023/02/28 08:14:14;;;;;;;4.15;0.55;;;2.90;99.90;;;;;;4962118;28;20071;-83
2023/02/28 08:16:42;;;;;;;1.42;0.82;;;3.00;99.90;;;;;;4958207;28;20492;-85
2023/02/28 08:19:09;;;;;;;2.55;0.70;;;3.00;99.90;;;;;;4953823;28;20059;-84
2023/02/28 08:21:36;;;;;;;2.42;1.40;;;3.00;99.90;;;;;;4944251;28;20401;-83
2023/02/28 08:24:03;;;;;;;1.35;0.93;;;3.00;99.90;;;;;;4961724;28;20383;-83
2023/02/28 08:26:30;;;;;;;2.17;0.70;;;3.00;99.90;;;;;;4957002;28;20424;-85
2023/02/28 08:28:57;;;;;;;0.93;0.65;;;3.10;99.90;;;;;;4951653;28;20130;-84
2023/02/28 08:31:27;;;;;;;3.85;0.98;;;3.10;99.90;;;;;;4952933;28;20110;-83
2023/02/28 08:33:58;;;;;;;1.70;1.30;;;3.10;99.90;;;;;;4955612;28;20039;-85
2023/02/28 08:36:28;;;;;;;2.45;0.75;;;3.10;99.90;;;;;;4944621;28;20051;-85
2023/02/28 08:38:56;;;;;;;3.25;1.27;;;3.10;99.90;;;;;;4954765;28;20141;-84
2023/02/28 08:41:23;;;;;;;2.45;1.00;;;3.20;99.90;;;;;;4965802;28;20057;-85
2023/02/28 08:43:50;;;;;;;0.73;0.57;;;3.20;99.90;;;;;;4954003;28;20142;-85
2023/02/28 08:46:17;;;;;;;2.20;1.08;;;3.30;99.90;;;;;;4957307;28;20066;-84
2023/02/28 08:48:45;;;;;;;4.47;0.60;;;3.40;99.90;;;;;;4956033;28;20463;-84
2023/02/28 08:51:18;;;;;;;3.10;0.73;;;3.40;99.90;;;;;;4959047;28;20125;-85
2023/02/28 08:53:45;;;;;;;1.83;0.95;;;3.40;99.90;;;;;;4942622;28;20143;-83
2023/02/28 08:56:14;;;;;;;1.98;1.00;;;3.40;99.90;;;;;;4953986;28;20141;-86
2023/02/28 08:58:41;;;;;;;1.58;0.90;;;3.40;99.90;;;;;;4953495;28;20535;-85
2023/02/28 09:01:12;;;;;;;1.23;0.70;;;3.40;99.90;;;;;;4954785;28;20049;-84
2023/02/28 09:03:43;;;;;;;2.38;0.77;;;3.50;99.90;;;;;;4957371;28;20105;-84
2023/02/28 09:06:11;;;;;;;0.77;0.60;;;3.50;99.90;;;;;;4952410;28;20057;-84
2023/02/28 09:08:39;;;;;;;4.32;1.00;;;3.50;99.90;;;;;;4958219;28;20368;-86
2023/02/28 09:11:07;;;;;;;2.80;1.23;;;3.50;99.90;;;;;;4961895;28;20054;-84
2023/02/28 09:13:34;;;;;;;2.67;0.75;;;3.50;99.90;;;;;;4957565;28;20055;-83
2023/02/28 09:16:04;;;;;;;5.18;0.90;;;3.50;99.90;;;;;;4948920;28;20050;-84
2023/02/28 09:18:33;;;;;;;3.05;1.38;;;3.60;99.90;;;;;;4949179;28;20044;-85
2023/02/28 09:21:11;;;;;;;2.08;0.68;;;3.60;99.90;;;;;;4958366;28;20051;-83
2023/02/28 09:23:38;;;;;;;3.20;0.93;;;3.60;99.90;;;;;;4954408;28;20063;-82
2023/02/28 09:26:05;;;;;;;4.88;1.10;;;3.60;99.90;;;;;;4952047;28;20094;-84
2023/02/28 09:28:32;;;;;;;4.32;1.63;;;3.60;99.90;;;;;;4958247;28;20127;-85
2023/02/28 09:30:59;;;;;;;1.30;0.77;;;3.70;99.90;;;;;;4955609;28;20564;-83
2023/02/28 09:33:26;;;;;;;3.95;0.98;;;3.70;99.90;;;;;;4963501;28;20066;-84
2023/02/28 09:36:00;;;;;;;1.85;1.10;;;3.70;99.90;;;;;;4936669;28;20047;-85
2023/02/28 09:38:28;;;;;;;1.73;0.77;;;3.70;99.90;;;;;;4958098;28;20082;-85
2023/02/28 09:41:09;;;;;;;4.07;2.78;;;3.70;99.90;;;;;;4950362;28;20058;-85
2023/02/28 09:43:40;;;;;;;4.60;0.88;;;3.70;99.90;;;;;;4955443;28;20045;-84
2023/02/28 09:46:32;;;;;;;2.20;1.20;;;3.70;99.90;;;;;;4955557;28;20102;-84
2023/02/28 09:49:04;;;;;;;1.35;0.77;;;3.80;99.90;;;;;;4944110;28;20059;-84
2023/02/28 09:51:34;;;;;;;2.35;1.08;;;3.90;99.90;;;;;;4952435;28;20099;-84
2023/02/28 09:54:01;;;;;;;3.40;0.88;;;3.90;99.90;;;;;;4959535;28;20051;-83
2023/02/28 09:56:35;;;;;;;1.35;0.85;;;3.90;99.90;;;;;;4953243;28;20138;-83
2023/02/28 09:59:21;;;;;;;2.65;1.20;;;4.00;99.90;;;;;;4956930;28;20102;-87
2023/02/28 10:01:54;;;;;;;2.50;1.27;;;4.00;99.90;;;;;;4952497;28;20042;-84
2023/02/28 10:04:39;;;;;;;1.55;0.90;;;4.00;99.90;;;;;;4953012;28;20055;-85
2023/02/28 10:07:32;;;;;;;4.55;1.30;;;4.10;99.90;;;;;;4969002;28;20427;-84
2023/02/28 10:10:02;;;;;;;1.65;1.10;;;4.10;99.90;;;;;;4961048;28;20042;-85
2023/02/28 10:12:31;;;;;;;2.47;1.20;;;4.10;99.90;;;;;;4962670;28;20109;-84
2023/02/28 10:14:59;;;;;;;1.58;0.80;;;4.10;99.90;;;;;;4961373;28;20456;-84
2023/02/28 10:17:35;;;;;;;4.53;0.93;;;4.10;99.90;;;;;;4956272;28;20057;-81
2023/02/28 10:20:29;;;;;;;2.13;1.15;;;4.10;99.90;;;;;;4961751;28;20141;-83
2023/02/28 10:23:25;;;;;;;2.28;1.20;;;4.10;99.90;;;;;;4961231;28;20043;-84
2023/02/28 10:26:11;;;;;;;1.33;0.90;;;3.90;99.90;;;;;;4958990;28;20109;-85
2023/02/28 10:28:38;;;;;;;5.05;1.35;;;3.90;99.90;;;;;;4965677;28;20684;-85
2023/02/28 10:31:08;;;;;;;4.00;1.33;;;3.80;99.90;;;;;;4963486;28;20110;-84
2023/02/28 10:33:35;;;;;;;1.67;1.20;;;3.90;99.90;;;;;;4960091;28;20058;-85
2023/02/28 10:36:06;;;;;;;3.13;0.80;;;3.90;99.90;;;;;;4959424;28;20134;-85
2023/02/28 10:38:35;;;;;;;3.55;1.13;;;3.90;99.90;;;;;;4959043;28;20086;-85
2023/02/28 10:41:26;;;;;;;1.88;0.95;;;3.90;99.90;;;;;;4960776;28;20164;-86
2023/02/28 10:44:22;;;;;;;2.28;1.90;;;3.90;99.90;;;;;;4961942;28;20488;-84
2023/02/28 10:46:51;;;;;;;2.70;1.40;;;4.00;99.90;;;;;;4961207;28;20043;-83
2023/02/28 10:49:24;;;;;;;4.25;1.02;;;4.10;99.90;;;;;;4959211;28;20636;-84
2023/02/28 10:51:54;;;;;;;1.90;1.00;;;4.20;99.90;;;;;;4941916;28;20132;-82
2023/02/28 10:54:27;;;;;;;;;;;4.40;99.90;;;;;;4939620;28;20078;-84
2023/02/28 10:57:18;;;;;;;1.00;0.85;;;4.30;99.90;;;;;;4961110;28;20199;-83
2023/02/28 10:59:46;;;;;;;1.75;1.38;;;4.30;99.90;;;;;;4956838;28;20059;-83
2023/02/28 11:02:36;;;;;;;1.98;1.15;;;4.30;99.90;;;;;;4965253;28;20046;-84
2023/02/28 11:05:27;;;;;;;1.90;1.33;;;4.30;99.90;;;;;;4954184;28;20050;-83
2023/02/28 11:07:56;;;;;;;1.25;0.98;;;4.30;99.90;;;;;;4955060;28;20059;-84
2023/02/28 11:10:28;;;;;;;3.35;1.08;;;4.20;99.90;;;;;;4973179;28;20058;-84
2023/02/28 11:12:57;;;;;;;2.60;1.27;;;4.10;99.90;;;;;;4958043;28;20535;-84
2023/02/28 11:15:35;;;;;;;1.58;1.42;;;4.20;99.90;;;;;;4951564;28;20054;-82
2023/02/28 11:18:40;;;;;;;4.68;1.38;;;4.30;99.90;;;;;;4959263;28;20543;-83
2023/02/28 11:21:09;;;;;;;8.57;1.40;;;4.20;99.90;;;;;;4957010;28;20321;-84
2023/02/28 11:23:40;;;;;;;2.25;1.50;;;4.30;99.90;;;;;;4952088;28;20118;-84
2023/02/28 11:26:11;;;;;;;2.38;0.88;;;4.30;99.90;;;;;;4958471;28;20101;-84
2023/02/28 11:28:42;;;;;;;2.30;1.00;;;4.30;99.90;;;;;;4954406;28;20048;-85
2023/02/28 11:31:13;;;;;;;2.63;1.02;;;4.30;99.90;;;;;;4959852;28;20051;-84
2023/02/28 11:33:49;;;;;;;3.05;1.15;;;4.20;99.90;;;;;;4952660;28;20061;-84
2023/02/28 11:36:26;;;;;;;1.75;0.88;;;4.20;99.90;;;;;;4953412;28;20047;-84
2023/02/28 11:38:56;;;;;;;4.22;1.42;;;4.30;99.90;;;;;;4971063;28;20593;-84
2023/02/28 11:41:45;;;;;;;4.90;1.38;;;4.40;99.90;;;;;;4953701;28;20074;-83
2023/02/28 11:44:27;;;;;;;2.80;1.20;;;4.30;99.90;;;;;;4953342;28;20050;-84
2023/02/28 11:46:57;;;;;;;1.27;0.82;;;4.30;99.90;;;;;;4954326;28;20106;-84
2023/02/28 11:49:52;;;;;;;2.40;1.33;;;4.40;99.90;;;;;;4945739;28;20050;-84
2023/02/28 11:52:40;;;;;;;4.50;1.42;;;4.40;99.90;;;;;;4956972;28;20082;-83
2023/02/28 11:55:37;;;;;;;1.88;1.02;;;4.50;99.90;;;;;;4960053;28;20186;-84
2023/02/28 11:58:17;;;;;;;4.90;1.70;;;4.50;99.90;;;;;;4957634;28;20074;-85
2023/02/28 12:01:16;;;;;;;1.95;1.55;;;4.60;99.90;;;;;;4953569;28;20118;-83
2023/02/28 12:04:02;;;;;;;9.02;1.77;;;4.40;99.90;;;;;;4956396;28;20448;-84
2023/02/28 12:07:09;;;;;;;15.10;1.58;;;4.40;99.90;;;;;;4953722;28;20050;-84
2023/02/28 12:09:49;;;;;;;12.30;1.55;;;4.40;99.90;;;;;;4954545;28;20528;-83
2023/02/28 12:12:32;;;;;;;8.05;1.50;;;4.40;99.90;;;;;;4940498;28;20394;-82
2023/02/28 12:15:20;;;;;;;12.93;1.33;;;4.40;99.90;;;;;;4956390;28;20130;-84
2023/02/28 12:18:13;;;;;;;7.13;0.98;;;4.30;99.90;;;;;;4956769;28;20104;-83
2023/02/28 12:21:22;;;;;;;4.85;1.20;;;4.30;99.90;;;;;;4955595;28;20069;-83
2023/02/28 12:24:24;;;;;;;3.25;1.45;;;4.20;99.90;;;;;;4959574;28;20047;-82
2023/02/28 12:26:54;;;;;;;6.97;1.33;;;4.30;99.90;;;;;;4938831;28;20663;-83
2023/02/28 12:29:32;;;;;;;12.25;1.70;;;4.30;99.90;;;;;;4955433;28;20563;-83
2023/02/28 12:32:16;;;;;;;2.47;1.00;;;4.30;99.90;;;;;;4963776;28;20867;-84
2023/02/28 12:35:07;;;;;;;10.15;1.63;;;4.30;99.90;;;;;;4955334;28;20127;-82
2023/02/28 12:37:40;;;;;;;22.63;3.42;;;4.50;99.90;;;;;;4953310;28;20611;-83
2023/02/28 12:40:18;;;;;;;5.28;1.95;;;4.60;99.90;;;;;;4956783;28;20113;-82
2023/02/28 12:42:50;;;;;;;1.48;1.38;;;4.60;99.90;;;;;;4957609;28;20050;-83
2023/02/28 12:45:23;;;;;;;16.55;3.20;;;4.60;99.90;;;;;;4954961;28;20050;-83
2023/02/28 12:47:57;;;;;;;11.30;2.00;;;4.70;99.90;;;;;;4956287;28;20053;-83
2023/02/28 12:50:26;;;;;;;3.60;1.67;;;4.80;99.90;;;;;;4959115;28;20424;-83
2023/02/28 12:53:24;;;;;;;17.40;2.60;;;4.80;99.90;;;;;;4962063;28;20081;-82
2023/02/28 12:56:18;;;;;;;3.53;1.40;;;4.90;99.90;;;;;;4965087;28;20118;-83
2023/02/28 12:58:52;;;;;;;8.13;1.17;;;5.00;99.90;;;;;;4959660;28;20043;-82
2023/02/28 13:01:47;;;;;;;3.10;1.35;;;5.00;99.90;;;;;;4956229;28;20043;-83
2023/02/28 13:04:26;;;;;;;1.80;0.95;;;5.10;99.90;;;;;;4957845;28;20094;-83
2023/02/28 13:06:55;;;;;;;4.82;1.00;;;5.10;99.90;;;;;;4958188;28;20050;-84
2023/02/28 13:09:22;;;;;;;1.90;1.00;;;5.00;99.90;;;;;;4955266;28;20632;-82
2023/02/28 13:11:52;;;;;;;3.60;1.02;;;4.90;99.90;;;;;;4951045;28;20459;-83
2023/02/28 13:14:32;;;;;;;10.05;1.27;;;5.00;99.90;;;;;;4953009;28;20117;-83
2023/02/28 13:17:10;;;;;;;;;;;5.00;99.90;;;;;;4951562;28;20124;-83
2023/02/28 13:20:17;;;;;;;5.38;1.48;;;5.00;99.90;;;;;;4949716;28;19926;-83
2023/02/28 13:22:47;;;;;;;8.68;1.65;;;4.90;99.90;;;;;;4950367;28;20063;-82
2023/02/28 13:25:41;;;;;;;6.05;1.00;;;4.90;99.90;;;;;;4956374;28;20082;-84
2023/02/28 13:28:11;;;;;;;16.63;2.33;;;4.90;99.90;;;;;;4954300;28;20050;-83